^^
Station Historical Data
 
Daily Summary for March 27, 2015 Units:  English    Metric   Both
« Previous Day
Next Day »
Daily Weekly Monthly Yearly Custom
  Current: High: Low: Average:
Temperature: 35.6 °F 36.8 °F 33.2 °F 34.9 °F
Dew Point: 20.6 °F 33.1 °F 19.6 °F 28.2 °F
Humidity: 54% 88% 52% 77%
Wind Speed: 3.4mph 6.2mph 0.1mph 2.6mph
Wind Gust: 6.0mph 9.2mph - -
WindENE - - SSE
Pressure: 29.86 in 29.90 in 29.85 in -
Precipitation: 0.01 in      
Historical Graphs
 
 
Tabular Data for March 27, 2015
Time Temperature Dew Point Pressure Wind Wind Speed Wind Gust Humidity Rainfall Rate (Hourly)
00:02 36.8 °F 33.1 °F 29.89 in South 2.6 mph 4.5 mph 86% 0.00 in
00:07 36.8 °F 33.1 °F 29.89 in South 4.0 mph 4.5 mph 86% 0.00 in
00:12 36.1 °F 32.3 °F 29.89 in South 3.5 mph 4.5 mph 86% 0.00 in
00:17 36.1 °F 32.3 °F 29.89 in South 2.5 mph 4.5 mph 86% 0.00 in
00:22 35.9 °F 32.2 °F 29.89 in South 2.8 mph 4.5 mph 86% 0.00 in
00:27 35.9 °F 32.2 °F 29.88 in SSE 2.5 mph 4.5 mph 86% 0.00 in
00:32 35.9 °F 32.2 °F 29.88 in SSE 2.4 mph 3.8 mph 86% 0.00 in
00:37 36.1 °F 32.6 °F 29.89 in SSE 2.5 mph 3.1 mph 87% 0.00 in
00:42 36.1 °F 32.6 °F 29.89 in SE 1.8 mph 3.1 mph 87% 0.00 in
00:47 36.1 °F 32.6 °F 29.88 in ESE 1.5 mph 2.2 mph 87% 0.00 in
00:52 36.3 °F 32.8 °F 29.88 in ESE 1.4 mph 2.2 mph 87% 0.00 in
00:57 36.5 °F 33.0 °F 29.88 in SE 1.2 mph 1.6 mph 87% 0.00 in
01:02 36.5 °F 32.7 °F 29.88 in East 1.3 mph 2.2 mph 86% 0.00 in
01:07 36.1 °F 32.3 °F 29.88 in North 1.6 mph 2.2 mph 86% 0.00 in
01:12 36.1 °F 32.3 °F 29.88 in NNW 1.3 mph 1.6 mph 86% 0.00 in
01:17 35.9 °F 32.2 °F 29.88 in WSW 1.0 mph 1.6 mph 86% 0.00 in
01:22 35.9 °F 32.2 °F 29.88 in North 0.8 mph 1.6 mph 86% 0.00 in
01:27 35.9 °F 32.2 °F 29.88 in North 0.6 mph 1.6 mph 86% 0.00 in
01:32 35.9 °F 32.2 °F 29.87 in NNE 0.4 mph 1.6 mph 86% 0.00 in
01:37 35.9 °F 32.2 °F 29.88 in ENE 0.1 mph 0.7 mph 86% 0.00 in
01:42 35.9 °F 32.2 °F 29.88 in South 0.7 mph 2.2 mph 86% 0.00 in
01:47 35.8 °F 32.0 °F 29.87 in North 0.9 mph 2.2 mph 86% 0.00 in
01:52 35.8 °F 32.0 °F 29.87 in NNE 0.5 mph 0.7 mph 86% 0.00 in
01:57 35.8 °F 32.0 °F 29.87 in North 0.4 mph 0.7 mph 86% 0.00 in
02:02 35.6 °F 31.8 °F 29.87 in NNW 0.2 mph 0.7 mph 86% 0.00 in
02:07 35.8 °F 32.3 °F 29.87 in NW 0.1 mph 0.7 mph 87% 0.00 in
02:12 35.8 °F 32.0 °F 29.87 in Calm   0.7 mph 86% 0.00 in
02:17 35.6 °F 31.8 °F 29.87 in West 0.5 mph 1.6 mph 86% 0.00 in
02:22 35.4 °F 31.6 °F 29.88 in WNW 0.6 mph 1.6 mph 86% 0.00 in
02:27 35.0 °F 31.3 °F 29.89 in NW 0.4 mph 1.6 mph 86% 0.00 in
02:32 34.9 °F 31.1 °F 29.90 in North 0.4 mph 0.7 mph 86% 0.00 in
02:37 34.7 °F 30.9 °F 29.89 in North 0.4 mph 0.7 mph 86% 0.00 in
02:42 34.7 °F 30.9 °F 29.89 in WNW 0.5 mph 0.7 mph 86% 0.00 in
02:47 34.5 °F 30.8 °F 29.88 in West 0.4 mph 0.7 mph 86% 0.00 in
02:52 34.5 °F 30.8 °F 29.88 in NNW 0.1 mph 0.7 mph 86% 0.00 in
02:57 34.3 °F 30.6 °F 29.88 in Calm     86% 0.00 in
03:02 34.3 °F 30.6 °F 29.88 in Calm     86% 0.00 in
03:07 34.3 °F 30.6 °F 29.88 in Calm     86% 0.00 in
03:13 34.3 °F 30.6 °F 29.88 in Calm     86% 0.00 in
03:18 34.3 °F 30.6 °F 29.88 in Calm     86% 0.00 in
03:23 34.1 °F 30.4 °F 29.88 in North 0.2 mph 0.7 mph 86% 0.00 in
03:28 34.1 °F 30.4 °F 29.88 in North 0.3 mph 0.7 mph 86% 0.00 in
03:33 34.0 °F 30.2 °F 29.88 in North 0.2 mph 0.7 mph 86% 0.00 in
03:38 34.0 °F 30.2 °F 29.88 in ENE 0.1 mph 0.7 mph 86% 0.00 in
03:43 34.0 °F 30.2 °F 29.87 in South 0.1 mph 0.7 mph 86% 0.00 in
03:48 33.8 °F 30.1 °F 29.87 in Calm     86% 0.00 in
03:53 33.8 °F 30.1 °F 29.88 in Calm     86% 0.00 in
03:58 33.6 °F 29.9 °F 29.89 in Calm     86% 0.00 in
04:03 33.6 °F 29.9 °F 29.87 in Calm     86% 0.00 in
04:08 33.6 °F 29.9 °F 29.85 in Calm     86% 0.00 in
04:13 33.6 °F 29.9 °F 29.86 in Calm     86% 0.00 in
04:18 33.4 °F 29.7 °F 29.87 in Calm     86% 0.00 in
04:23 33.6 °F 29.9 °F 29.87 in Calm     86% 0.00 in
04:28 33.6 °F 30.2 °F 29.87 in Calm     87% 0.00 in
04:33 33.6 °F 29.9 °F 29.87 in Calm     86% 0.00 in
04:38 33.4 °F 29.7 °F 29.87 in Calm     86% 0.00 in
04:43 33.4 °F 30.0 °F 29.87 in Calm     87% 0.00 in
04:48 33.4 °F 30.0 °F 29.86 in Calm     87% 0.00 in
04:53 33.6 °F 30.2 °F 29.86 in Calm     87% 0.00 in
04:58 33.4 °F 29.7 °F 29.86 in Calm     86% 0.00 in
05:03 33.4 °F 30.0 °F 29.86 in Calm     87% 0.00 in
05:08 33.4 °F 30.0 °F 29.86 in Calm     87% 0.00 in
05:13 33.4 °F 30.0 °F 29.86 in Calm     87% 0.00 in
05:18 33.4 °F 30.0 °F 29.86 in Calm     87% 0.00 in
05:23 33.4 °F 30.0 °F 29.86 in Calm     87% 0.00 in
05:28 33.6 °F 30.2 °F 29.86 in Calm     87% 0.00 in
05:34 33.6 °F 30.2 °F 29.86 in Calm     87% 0.00 in
05:38 33.6 °F 30.2 °F 29.85 in Calm     87% 0.00 in
05:44 33.8 °F 30.3 °F 29.85 in Calm     87% 0.00 in
05:49 33.8 °F 30.3 °F 29.85 in Calm     87% 0.01 in
05:54 33.6 °F 30.2 °F 29.85 in Calm     87% 0.01 in
05:59 33.6 °F 30.2 °F 29.85 in Calm     87% 0.01 in
06:04 33.6 °F 30.2 °F 29.85 in Calm     87% 0.01 in
06:09 33.6 °F 30.2 °F 29.85 in Calm     87% 0.01 in
06:14 33.6 °F 30.2 °F 29.85 in Calm     87% 0.01 in
06:19 33.6 °F 30.2 °F 29.85 in Calm     87% 0.01 in
06:24 33.4 °F 30.0 °F 29.85 in Calm     87% 0.01 in
06:29 33.4 °F 30.0 °F 29.85 in Calm     87% 0.01 in
06:34 33.4 °F 30.0 °F 29.86 in Calm     87% 0.01 in
06:39 33.4 °F 30.0 °F 29.86 in Calm     87% 0.01 in
06:44 33.6 °F 30.2 °F 29.86 in Calm     87% 0.01 in
06:49 33.6 °F 30.2 °F 29.87 in Calm     87% 0.00 in
06:54 33.4 °F 30.0 °F 29.87 in Calm     87% 0.00 in
06:59 33.4 °F 30.0 °F 29.87 in Calm     87% 0.00 in
07:04 33.4 °F 30.0 °F 29.86 in Calm     87% 0.00 in
07:09 33.4 °F 30.0 °F 29.87 in Calm   0.7 mph 87% 0.00 in
07:14 33.4 °F 30.0 °F 29.87 in NW 0.1 mph 0.7 mph 87% 0.00 in
07:19 33.2 °F 29.8 °F 29.87 in Calm   0.7 mph 87% 0.00 in
07:24 33.2 °F 29.8 °F 29.87 in Calm     87% 0.00 in
07:29 33.2 °F 29.8 °F 29.87 in East 0.2 mph 0.7 mph 87% 0.00 in
07:34 33.2 °F 29.8 °F 29.87 in East 0.2 mph 0.7 mph 87% 0.00 in
07:39 33.2 °F 29.8 °F 29.87 in Calm     87% 0.00 in
07:44 33.2 °F 29.8 °F 29.86 in Calm     87% 0.00 in
07:49 33.2 °F 29.8 °F 29.86 in Calm     87% 0.00 in
07:54 33.2 °F 29.8 °F 29.86 in Calm     87% 0.00 in
07:59 33.2 °F 29.8 °F 29.86 in Calm     87% 0.00 in
08:04 33.2 °F 29.8 °F 29.86 in Calm     87% 0.00 in
08:09 33.4 °F 30.0 °F 29.86 in Calm     87% 0.00 in
08:14 33.4 °F 30.0 °F 29.87 in Calm     87% 0.00 in
08:19 33.4 °F 30.0 °F 29.86 in Calm     87% 0.00 in
08:24 33.6 °F 30.2 °F 29.87 in East 0.4 mph 1.6 mph 87% 0.00 in
08:29 33.6 °F 30.2 °F 29.87 in South 1.1 mph 2.2 mph 87% 0.00 in
08:34 34.0 °F 30.8 °F 29.87 in South 1.4 mph 2.2 mph 88% 0.00 in
08:39 34.1 °F 31.0 °F 29.87 in North 1.0 mph 2.2 mph 88% 0.00 in
08:44 34.3 °F 31.1 °F 29.87 in North 1.5 mph 3.1 mph 88% 0.00 in
08:49 34.7 °F 31.2 °F 29.86 in ENE 1.9 mph 3.1 mph 87% 0.00 in
08:54 34.9 °F 31.4 °F 29.86 in SE 1.8 mph 2.2 mph 87% 0.00 in
08:59 35.0 °F 31.6 °F 29.86 in SSE 2.5 mph 4.5 mph 87% 0.00 in
09:04 35.2 °F 31.5 °F 29.86 in SE 2.6 mph 4.5 mph 86% 0.00 in
09:09 35.6 °F 31.8 °F 29.87 in ENE 2.3 mph 3.8 mph 86% 0.00 in
09:14 35.4 °F 31.4 °F 29.87 in NNW 2.4 mph 4.5 mph 85% 0.00 in
09:19 35.4 °F 31.4 °F 29.87 in West 2.4 mph 4.5 mph 85% 0.00 in
09:24 35.2 °F 30.3 °F 29.87 in WNW 2.1 mph 3.1 mph 82% 0.00 in
09:29 35.2 °F 30.3 °F 29.87 in NNE 2.2 mph 3.8 mph 82% 0.00 in
09:34 35.2 °F 30.0 °F 29.87 in ESE 2.2 mph 3.8 mph 81% 0.00 in
09:39 35.0 °F 29.5 °F 29.87 in ESE 2.4 mph 5.4 mph 80% 0.00 in
09:44 34.7 °F 28.9 °F 29.87 in SSE 2.9 mph 5.4 mph 79% 0.00 in
09:49 35.0 °F 29.5 °F 29.86 in South 2.5 mph 3.8 mph 80% 0.00 in
09:55 35.4 °F 29.9 °F 29.86 in NE 3.2 mph 6.0 mph 80% 0.00 in
10:00 35.6 °F 29.7 °F 29.86 in NE 3.7 mph 6.0 mph 79% 0.00 in
10:05 35.9 °F 29.8 °F 29.86 in SE 3.1 mph 6.0 mph 78% 0.00 in
10:10 36.3 °F 29.2 °F 29.86 in SE 3.6 mph 5.4 mph 75% 0.00 in
10:15 36.3 °F 28.8 °F 29.87 in SE 3.2 mph 5.4 mph 74% 0.00 in
10:20 36.3 °F 28.5 °F 29.87 in SE 2.8 mph 4.5 mph 73% 0.00 in
10:25 36.5 °F 28.7 °F 29.87 in ESE 3.0 mph 4.5 mph 73% 0.00 in
10:30 36.8 °F 28.7 °F 29.86 in ESE 3.2 mph 5.4 mph 72% 0.00 in
10:35 36.8 °F 26.9 °F 29.87 in SE 4.0 mph 6.0 mph 67% 0.00 in
10:40 36.5 °F 26.9 °F 29.87 in NNE 4.4 mph 9.2 mph 68% 0.00 in
10:45 36.1 °F 25.9 °F 29.87 in WNW 4.1 mph 9.2 mph 66% 0.00 in
10:50 35.8 °F 25.5 °F 29.87 in SW 3.8 mph 6.9 mph 66% 0.00 in
10:55 35.8 °F 24.8 °F 29.87 in WSW 3.8 mph 8.3 mph 64% 0.00 in
11:00 35.9 °F 25.0 °F 29.87 in SSE 3.5 mph 8.3 mph 64% 0.00 in
11:05 35.8 °F 24.4 °F 29.87 in SW 3.8 mph 6.0 mph 63% 0.00 in
11:10 35.6 °F 23.1 °F 29.88 in SW 4.6 mph 6.9 mph 60% 0.00 in
11:15 35.4 °F 23.7 °F 29.88 in SSE 4.1 mph 6.9 mph 62% 0.00 in
11:20 35.4 °F 22.5 °F 29.88 in ESE 4.0 mph 6.9 mph 59% 0.00 in
11:25 35.0 °F 21.8 °F 29.88 in SSE 4.3 mph 6.9 mph 58% 0.00 in
11:30 34.9 °F 21.2 °F 29.88 in South 3.9 mph 6.9 mph 57% 0.00 in
11:35 34.9 °F 21.2 °F 29.89 in SSW 3.9 mph 6.0 mph 57% 0.00 in
11:40 35.0 °F 21.4 °F 29.89 in SW 4.3 mph 6.9 mph 57% 0.00 in
11:45 34.9 °F 22.0 °F 29.89 in SSE 4.1 mph 6.9 mph 59% 0.00 in
11:50 34.9 °F 22.4 °F 29.89 in ESE 3.5 mph 6.0 mph 60% 0.00 in
11:55 34.9 °F 22.8 °F 29.89 in ESE 3.1 mph 5.4 mph 61% 0.00 in
12:00 34.9 °F 22.8 °F 29.89 in ESE 2.6 mph 5.4 mph 61% 0.00 in
12:05 34.9 °F 22.8 °F 29.89 in SE 2.0 mph 3.8 mph 61% 0.00 in
12:10 34.7 °F 22.6 °F 29.88 in SSE 2.2 mph 3.8 mph 61% 0.00 in
12:15 34.9 °F 22.8 °F 29.88 in ESE 2.3 mph 3.8 mph 61% 0.00 in
12:20 35.2 °F 23.5 °F 29.88 in ESE 2.6 mph 4.5 mph 62% 0.00 in
12:25 35.8 °F 23.7 °F 29.88 in ESE 2.8 mph 4.5 mph 61% 0.00 in
12:30 36.3 °F 24.2 °F 29.88 in ESE 3.1 mph 4.5 mph 61% 0.00 in
12:35 36.5 °F 23.9 °F 29.88 in ESE 3.7 mph 5.4 mph 60% 0.00 in
12:40 36.7 °F 23.7 °F 29.88 in ESE 3.6 mph 5.4 mph 59% 0.00 in
12:45 36.3 °F 23.0 °F 29.88 in ESE 3.3 mph 6.0 mph 58% 0.00 in
12:50 36.1 °F 22.8 °F 29.88 in SE 3.1 mph 6.0 mph 58% 0.00 in
12:55 35.9 °F 22.6 °F 29.88 in SSE 2.5 mph 3.8 mph 58% 0.00 in
13:00 35.9 °F 23.0 °F 29.88 in ENE 3.2 mph 6.0 mph 59% 0.00 in
13:05 35.9 °F 22.6 °F 29.87 in East 3.3 mph 6.0 mph 58% 0.00 in
13:10 36.3 °F 23.4 °F 29.88 in ENE 3.5 mph 6.9 mph 59% 0.00 in
13:15 36.5 °F 23.1 °F 29.88 in East 4.4 mph 6.9 mph 58% 0.00 in
13:20 36.1 °F 22.4 °F 29.87 in SSE 4.4 mph 6.0 mph 57% 0.00 in
13:25 36.1 °F 23.6 °F 29.87 in ENE 4.5 mph 6.0 mph 60% 0.00 in
13:30 36.7 °F 23.7 °F 29.87 in NNE 4.7 mph 6.0 mph 59% 0.00 in
13:35 36.7 °F 23.3 °F 29.87 in NNE 4.6 mph 6.0 mph 58% 0.00 in
13:40 36.1 °F 22.4 °F 29.87 in SSW 4.9 mph 7.6 mph 57% 0.00 in
13:45 35.9 °F 22.2 °F 29.87 in SW 4.6 mph 7.6 mph 57% 0.00 in
13:50 36.1 °F 23.2 °F 29.87 in WSW 4.4 mph 6.0 mph 59% 0.00 in
13:55 36.1 °F 22.8 °F 29.86 in SSE 4.9 mph 6.9 mph 58% 0.00 in
14:00 36.1 °F 22.4 °F 29.87 in SSE 5.8 mph 8.3 mph 57% 0.00 in
14:05 35.8 °F 21.2 °F 29.86 in SSE 6.2 mph 8.3 mph 55% 0.00 in
14:10 35.2 °F 20.7 °F 29.86 in South 6.1 mph 8.3 mph 55% 0.00 in
14:16 35.2 °F 21.1 °F 29.86 in SSE 5.1 mph 8.3 mph 56% 0.00 in
14:21 35.6 °F 21.0 °F 29.86 in SSE 4.0 mph 6.0 mph 55% 0.00 in
14:26 35.8 °F 21.6 °F 29.86 in SSE 3.4 mph 6.0 mph 56% 0.00 in
14:31 35.8 °F 21.2 °F 29.86 in SE 3.6 mph 6.0 mph 55% 0.00 in
14:36 35.4 °F 20.9 °F 29.86 in SSE 3.9 mph 6.0 mph 55% 0.00 in
14:41 35.2 °F 20.3 °F 29.86 in SSE 3.8 mph 5.4 mph 54% 0.00 in
14:46 35.6 °F 21.0 °F 29.86 in South 4.1 mph 6.9 mph 55% 0.00 in
14:51 35.8 °F 20.3 °F 29.86 in SW 4.7 mph 7.6 mph 53% 0.00 in
14:56 35.4 °F 19.6 °F 29.86 in SSW 4.8 mph 7.6 mph 52% 0.00 in
15:01 35.2 °F 19.8 °F 29.86 in South 4.3 mph 6.9 mph 53% 0.00 in
15:06 35.6 °F 20.6 °F 29.86 in ENE 3.4 mph 6.0 mph 54% 0.00 in
Export, Pennsylvania, USA
Compliments of Weather Underground